Pittsburgh, Pennsylvania
Traffic Map
Current Weather Conditions
Pittsburgh, Pennsylvania
Clear
Clear
39°
Feels Like: 32°
Wind Chill: 32° Ceiling: Unl
Heat Index: 39° Visibility: 10mi
Dew Point: 16° Wind: 10mph
Humidity: 39% Direction: 100° (E)
Pressure: 30.39in Gusts: 0mph
Raw Report DataKAGC 170353Z AUTO 10009KT 10SM CLR 04/M09 A3039 RMK AO2 SLP305 T00391089 TSNO $
Traffic Incident Summary
Active as of:
Severity:
Category:
InformationThere was an issue retrieving the traffic information for this location. Please try a different location or try again shortly.
Advertisements
At Last! Intellicast now available for iPhone and Android